Serrana, Brazil
Current Conditions -  °F | °C
As of 4:00 AM on Saturday 25 Oct 2014 (Local Time) from SBRP Reporting Station
Moderate Rain Moderate Rain  
Wind Chill: 68°   Ceiling: 600
Heat Index: 68°   Visibility: 1.8mi
Dew Point: 64°   Wind: 10mph
Humidity: 88%   Direction: 360°N
Pressure: 29.97"   Gusts: NA
Location:  21.21°S, 47.6°W
Report Text: SBRP 250600Z 36009KT 3000 RA SCT003 BKN006 OVC013 20/18 Q1015
Loading
Personal Weather Stations






























Interactive Weather Map
Tropical Storm Tracking
New forecast layout! Learn more

10-Day Weather Forecast

Advertisements
Track Severe Weather on mobile